Time;durP1;ratioP1;P1;durP2;ratioP2;P2;SDS_P1;SDS_P2;PMS_P1;PMS_P2;Temp;Humidity;BMP_temperature;BMP_pressure;BME280_temperature;BME280_humidity;BME280_pressure;Samples;Min_cycle;Max_cycle;Signal;HPM_P1;HPM_P2
2022/07/25 00:00:14;;;;;;;10.67;9.67;;;;;;;24.36;53.18;100865.81;5057861;28;20185;-68
2022/07/25 00:02:40;;;;;;;10.57;9.60;;;;;;;24.54;52.56;100866.72;5059347;28;20524;-68
2022/07/25 00:05:06;;;;;;;10.00;9.20;;;;;;;24.27;53.55;100866.22;5055434;28;20176;-68
2022/07/25 00:07:31;;;;;;;10.80;9.90;;;;;;;24.25;53.64;100862.75;5079009;28;20184;-68
2022/07/25 00:09:56;;;;;;;10.90;9.80;;;;;;;23.87;55.05;100864.38;5079039;28;20449;-68
2022/07/25 00:12:22;;;;;;;11.13;10.23;;;;;;;23.62;55.77;100856.59;5079657;28;20185;-69
2022/07/25 00:14:47;;;;;;;10.50;9.67;;;;;;;23.45;55.98;100857.31;5078663;28;20184;-74
2022/07/25 00:17:13;;;;;;;10.73;9.83;;;;;;;23.57;55.92;100858.59;5078816;28;20205;-73
2022/07/25 00:19:39;;;;;;;11.50;10.40;;;;;;;23.76;55.68;100856.00;5079198;28;20542;-72
2022/07/25 00:22:04;;;;;;;11.40;10.30;;;;;;;23.66;56.08;100854.66;5078744;28;20226;-72
2022/07/25 00:24:29;;;;;;;11.73;10.60;;;;;;;23.89;55.67;100851.03;5078567;28;20188;-72
2022/07/25 00:26:55;;;;;;;10.53;9.63;;;;;;;23.80;55.24;100846.94;5079121;28;20265;-72
2022/07/25 00:29:20;;;;;;;10.40;9.60;;;;;;;23.15;56.86;100854.13;5078701;28;20177;-71
2022/07/25 00:31:46;;;;;;;11.20;10.30;;;;;;;23.57;56.41;100847.06;5078683;28;20222;-71
2022/07/25 00:34:11;;;;;;;11.20;10.13;;;;;;;23.50;55.95;100844.69;5078868;28;20161;-71
2022/07/25 00:36:36;;;;;;;10.97;9.50;;;;;;;23.42;56.77;100846.81;5078600;28;20443;-70
2022/07/25 00:39:03;;;;;;;11.13;10.13;;;;;;;23.42;56.49;100838.84;5080107;28;20169;-70
2022/07/25 00:41:28;;;;;;;10.50;9.70;;;;;;;23.41;55.94;100834.44;5079203;28;20550;-71
2022/07/25 00:43:53;;;;;;;10.73;9.90;;;;;;;23.84;55.24;100839.69;5065566;28;20478;-73
2022/07/25 00:46:19;;;;;;;11.63;10.53;;;;;;;23.57;55.71;100841.75;5058400;28;20170;-71
2022/07/25 00:48:44;;;;;;;11.70;10.57;;;;;;;23.27;56.40;100844.78;5058881;28;20254;-72
2022/07/25 00:51:10;;;;;;;11.03;10.13;;;;;;;23.42;55.77;100840.63;5058360;28;20182;-70
2022/07/25 00:53:37;;;;;;;11.20;10.30;;;;;;;23.54;55.73;100842.75;5058057;28;20236;-72
2022/07/25 00:56:04;;;;;;;11.40;10.50;;;;;;;23.00;56.47;100839.66;5058766;28;20177;-72
2022/07/25 00:58:29;;;;;;;10.80;9.80;;;;;;;23.68;55.29;100827.06;5058107;28;20489;-71
2022/07/25 01:00:55;;;;;;;11.43;10.30;;;;;;;23.40;55.26;100827.38;5057306;28;20428;-69
2022/07/25 01:03:20;;;;;;;11.33;10.43;;;;;;;23.62;55.13;100827.31;5058516;28;20185;-69
2022/07/25 01:05:46;;;;;;;10.70;9.90;;;;;;;23.32;55.45;100824.19;5057310;28;20213;-69
2022/07/25 01:08:12;;;;;;;11.27;10.20;;;;;;;23.53;54.77;100817.94;5057437;28;20161;-69
2022/07/25 01:10:37;;;;;;;10.67;9.87;;;;;;;23.39;54.88;100822.97;5058558;28;20162;-68
2022/07/25 01:13:03;;;;;;;10.83;9.83;;;;;;;23.02;54.87;100819.19;5057306;28;20423;-69
2022/07/25 01:15:28;;;;;;;10.97;10.07;;;;;;;23.00;55.27;100821.03;5057911;28;20173;-69
2022/07/25 01:17:54;;;;;;;10.40;9.70;;;;;;;23.57;53.88;100820.47;5058406;28;20204;-70
2022/07/25 01:20:25;;;;;;;10.47;9.57;;;;;;;23.50;54.18;100817.19;5058014;28;20248;-70
2022/07/25 01:22:51;;;;;;;10.70;9.70;;;;;;;23.04;54.85;100820.88;5057954;28;20166;-70
2022/07/25 01:25:18;;;;;;;11.23;10.23;;;;;;;23.27;54.25;100812.88;5058191;28;20879;-70
2022/07/25 01:27:44;;;;;;;10.77;9.87;;;;;;;23.35;53.97;100814.28;5057790;28;20458;-69
2022/07/25 01:30:11;;;;;;;11.43;10.43;;;;;;;23.35;53.65;100819.63;5057840;28;20386;-70
2022/07/25 01:32:37;;;;;;;10.50;9.60;;;;;;;22.99;54.66;100811.34;5058345;28;20466;-69
2022/07/25 01:35:04;;;;;;;11.40;10.30;;;;;;;23.02;54.54;100808.56;5057613;28;20412;-69
2022/07/25 01:37:30;;;;;;;10.47;9.43;;;;;;;23.21;54.28;100801.56;5056782;28;20209;-70
2022/07/25 01:39:55;;;;;;;10.50;9.67;;;;;;;23.17;53.48;100799.97;5061385;28;20400;-69
2022/07/25 01:42:21;;;;;;;10.30;9.40;;;;;;;23.28;53.03;100794.19;5062024;28;20177;-69
2022/07/25 01:44:46;;;;;;;10.70;9.80;;;;;;;23.14;53.43;100793.94;5062071;28;20260;-69
2022/07/25 01:47:12;;;;;;;9.87;9.07;;;;;;;23.18;53.24;100796.38;5062318;28;20165;-69
2022/07/25 01:49:37;;;;;;;10.30;9.40;;;;;;;22.94;53.31;100794.72;5061727;28;20177;-70
2022/07/25 01:52:03;;;;;;;10.40;9.47;;;;;;;23.04;53.11;100790.72;5061092;28;20299;-70
2022/07/25 01:54:28;;;;;;;11.10;10.10;;;;;;;23.03;52.69;100791.69;5061440;28;20224;-70
2022/07/25 01:56:53;;;;;;;9.67;8.90;;;;;;;23.20;52.96;100783.00;5060757;28;20205;-69
2022/07/25 01:59:19;;;;;;;10.13;9.30;;;;;;;22.99;53.06;100780.31;5061931;28;20200;-69
2022/07/25 02:01:44;;;;;;;10.30;9.50;;;;;;;23.05;52.69;100780.03;5061635;28;20200;-70
2022/07/25 02:04:09;;;;;;;9.57;8.80;;;;;;;23.26;52.30;100781.88;5061344;28;20173;-70
2022/07/25 02:06:35;;;;;;;9.80;9.10;;;;;;;23.07;52.96;100780.00;5061842;28;20188;-70
2022/07/25 02:09:01;;;;;;;10.03;9.23;;;;;;;23.16;52.36;100770.78;5061415;28;20201;-70
2022/07/25 02:11:26;;;;;;;10.00;9.20;;;;;;;23.19;52.49;100771.53;5061327;28;20188;-70
2022/07/25 02:13:52;;;;;;;9.47;8.57;;;;;;;23.05;52.57;100765.88;5061744;28;20702;-70
2022/07/25 02:16:17;;;;;;;12.13;9.57;;;;;;;22.94;53.08;100762.81;5061248;28;20253;-69
2022/07/25 02:18:43;;;;;;;9.83;9.03;;;;;;;22.75;52.77;100758.25;5061482;28;20215;-70
2022/07/25 02:21:09;;;;;;;10.67;9.67;;;;;;;22.93;52.46;100753.94;5061658;28;20573;-70
2022/07/25 02:23:35;;;;;;;9.67;8.87;;;;;;;22.81;53.13;100747.38;5060975;28;20165;-70
2022/07/25 02:26:00;;;;;;;9.43;8.63;;;;;;;22.64;53.00;100752.53;5060815;28;20686;-70
2022/07/25 02:28:26;;;;;;;10.20;9.30;;;;;;;22.55;53.77;100748.44;5061409;28;20162;-69
2022/07/25 02:30:51;;;;;;;10.83;9.93;;;;;;;22.61;53.61;100737.56;5061075;28;20196;-69
2022/07/25 02:33:17;;;;;;;9.90;8.97;;;;;;;22.47;54.55;100739.91;5061003;28;20256;-69
2022/07/25 02:35:42;;;;;;;10.17;9.20;;;;;;;22.59;54.00;100743.88;5061431;28;20202;-69
2022/07/25 02:38:07;;;;;;;10.03;9.13;;;;;;;22.50;54.25;100734.47;5060945;28;20256;-69
2022/07/25 02:40:32;;;;;;;10.97;9.43;;;;;;;22.32;54.75;100733.38;5060897;28;20466;-69
2022/07/25 02:42:58;;;;;;;11.30;9.90;;;;;;;22.56;54.53;100733.38;5061523;28;20178;-69
2022/07/25 02:45:23;;;;;;;10.57;9.70;;;;;;;21.88;55.83;100726.22;5060712;28;20162;-69
2022/07/25 02:47:49;;;;;;;10.50;9.60;;;;;;;22.51;54.57;100717.59;5060026;28;20170;-69
2022/07/25 02:50:14;;;;;;;10.00;9.20;;;;;;;22.07;54.89;100728.16;5061109;28;20566;-69
2022/07/25 02:52:40;;;;;;;10.53;9.63;;;;;;;22.28;55.29;100716.69;5059803;28;20569;-70
2022/07/25 02:55:06;;;;;;;10.10;9.07;;;;;;;22.37;54.49;100721.66;5060510;28;20204;-69
2022/07/25 02:57:31;;;;;;;10.47;9.27;;;;;;;22.11;54.93;100714.72;5060790;28;20209;-69
2022/07/25 02:59:58;;;;;;;10.13;9.13;;;;;;;21.89;55.48;100724.41;5060540;28;20197;-70
2022/07/25 03:02:23;;;;;;;10.20;9.20;;;;;;;22.47;54.18;100716.00;5060770;28;20793;-68
2022/07/25 03:04:48;;;;;;;9.40;8.60;;;;;;;22.40;53.83;100710.06;5060703;28;20205;-68
2022/07/25 03:07:14;;;;;;;10.80;9.50;;;;;;;22.40;53.37;100706.56;5060439;28;20563;-68
2022/07/25 03:09:39;;;;;;;9.37;8.67;;;;;;;21.86;53.83;100715.63;5060250;28;20223;-69
2022/07/25 03:12:05;;;;;;;9.67;8.87;;;;;;;21.46;54.26;100709.16;5060625;28;20177;-69
2022/07/25 03:14:30;;;;;;;9.77;8.60;;;;;;;21.78;53.10;100707.09;5060095;28;20173;-68
2022/07/25 03:16:55;;;;;;;10.10;8.80;;;;;;;21.84;53.57;100701.56;5060009;28;20515;-70
2022/07/25 03:19:21;;;;;;;9.43;8.30;;;;;;;21.84;53.15;100701.56;5060564;28;20197;-68
2022/07/25 03:21:46;;;;;;;10.13;8.83;;;;;;;21.80;53.11;100697.31;5060233;28;20231;-69
2022/07/25 03:24:12;;;;;;;9.20;8.00;;;;;;;21.62;53.24;100698.88;5060009;28;20436;-69
2022/07/25 03:26:37;;;;;;;9.43;8.60;;;;;;;21.91;53.20;100688.94;5060337;28;20154;-69
2022/07/25 03:29:03;;;;;;;8.50;7.80;;;;;;;21.73;53.33;100690.53;5060091;28;20181;-69
2022/07/25 03:31:28;;;;;;;9.20;8.40;;;;;;;21.55;53.46;100686.75;5060063;28;20173;-69
2022/07/25 03:33:53;;;;;;;8.83;8.13;;;;;;;21.51;54.46;100678.03;5060186;28;20237;-69
2022/07/25 03:36:19;;;;;;;9.93;9.00;;;;;;;21.76;53.30;100668.28;5059845;28;20247;-69
2022/07/25 03:38:44;;;;;;;8.70;7.90;;;;;;;21.67;53.24;100675.66;5059805;28;20180;-69
2022/07/25 03:41:11;;;;;;;8.60;7.90;;;;;;;21.56;53.23;100677.00;5060069;28;20181;-68
2022/07/25 03:43:36;;;;;;;8.53;7.70;;;;;;;21.55;53.21;100675.28;5059529;28;20484;-69
2022/07/25 03:46:01;;;;;;;8.97;8.20;;;;;;;21.66;52.87;100667.78;5059791;28;20423;-68
2022/07/25 03:48:27;;;;;;;8.47;7.43;;;;;;;21.72;52.79;100662.25;5060324;28;20196;-70
2022/07/25 03:50:52;;;;;;;8.53;7.80;;;;;;;21.90;52.76;100652.69;5059644;28;20607;-69
2022/07/25 03:53:18;;;;;;;8.93;7.70;;;;;;;22.04;52.28;100653.03;5059387;28;20276;-69
2022/07/25 03:55:43;;;;;;;9.20;8.40;;;;;;;21.95;52.56;100652.53;5059711;28;20173;-69
2022/07/25 03:58:08;;;;;;;9.53;7.70;;;;;;;21.95;51.86;100653.38;5059357;28;20223;-69
2022/07/25 04:00:34;;;;;;;7.67;7.07;;;;;;;21.72;52.77;100648.09;5059518;28;20178;-69
2022/07/25 04:02:59;;;;;;;8.43;7.73;;;;;;;21.94;52.15;100650.81;5059246;28;20165;-68
2022/07/25 04:05:24;;;;;;;8.60;7.80;;;;;;;22.11;51.36;100650.13;5047047;28;20178;-69
2022/07/25 04:07:50;;;;;;;7.50;6.90;;;;;;;22.15;50.18;100651.72;5039366;28;20393;-68
2022/07/25 04:10:15;;;;;;;8.20;7.53;;;;;;;23.42;47.92;100639.31;5039589;28;20245;-68
2022/07/25 04:12:40;;;;;;;9.50;7.83;;;;;;;23.41;47.56;100634.03;5039188;28;20174;-68
2022/07/25 04:15:06;;;;;;;8.43;7.63;;;;;;;22.63;48.98;100633.88;5039075;28;20686;-68
2022/07/25 04:17:32;;;;;;;7.43;6.93;;;;;;;23.72;47.35;100620.19;5039454;28;20194;-69
2022/07/25 04:19:57;;;;;;;7.00;6.40;;;;;;;23.02;48.86;100617.13;5039054;28;20174;-69
2022/07/25 04:22:22;;;;;;;7.77;7.07;;;;;;;22.93;48.24;100612.22;5039124;28;20220;-69
2022/07/25 04:24:48;;;;;;;8.83;6.83;;;;;;;24.13;45.43;100612.00;5039011;28;20256;-68
2022/07/25 04:27:13;;;;;;;7.33;6.73;;;;;;;24.27;44.41;100602.47;5038976;28;20170;-68
2022/07/25 04:29:38;;;;;;;15.63;7.33;;;;;;;24.40;44.88;100603.59;5038169;28;20171;-68
2022/07/25 04:32:04;;;;;;;9.03;6.53;;;;;;;25.65;41.40;100586.34;5039491;28;20162;-69
2022/07/25 04:34:30;;;;;;;6.90;6.30;;;;;;;25.52;41.68;100585.34;5038565;28;20252;-70
2022/07/25 04:36:55;;;;;;;6.70;6.20;;;;;;;26.02;41.14;100578.97;5038737;28;20548;-69
2022/07/25 04:39:20;;;;;;;6.83;6.23;;;;;;;26.08;40.51;100577.72;5039194;28;20171;-69
2022/07/25 04:41:46;;;;;;;7.17;6.57;;;;;;;26.18;40.66;100572.72;5038760;28;20181;-69
2022/07/25 04:44:12;;;;;;;8.30;6.30;;;;;;;26.56;39.59;100567.78;5054289;28;20196;-69
2022/07/25 04:46:37;;;;;;;6.70;6.10;;;;;;;26.43;39.63;100569.44;5058973;28;20162;-69
2022/07/25 04:49:02;;;;;;;6.67;6.07;;;;;;;25.94;40.66;100564.28;5058570;28;20539;-70
2022/07/25 04:51:28;;;;;;;6.50;5.90;;;;;;;27.15;39.01;100558.84;5058480;28;20178;-69
2022/07/25 04:53:53;;;;;;;6.80;6.20;;;;;;;25.91;40.79;100554.63;5058188;28;20213;-69
2022/07/25 04:56:18;;;;;;;6.90;6.30;;;;;;;26.78;39.01;100547.78;5058451;28;20177;-69
2022/07/25 04:58:44;;;;;;;6.40;5.90;;;;;;;28.28;36.63;100550.72;5058455;28;20233;-67
2022/07/25 05:01:09;;;;;;;6.87;6.37;;;;;;;26.99;38.81;100552.75;5058375;28;20223;-68
2022/07/25 05:03:35;;;;;;;7.30;5.87;;;;;;;26.72;38.74;100545.47;5058041;28;20191;-69
2022/07/25 05:06:00;;;;;;;7.13;6.37;;;;;;;26.83;38.77;100542.13;5058503;28;20299;-69
2022/07/25 05:08:25;;;;;;;6.57;5.90;;;;;;;26.87;39.38;100549.00;5058168;28;20174;-69
2022/07/25 05:10:51;;;;;;;6.40;5.90;;;;;;;27.04;38.33;100539.94;5058354;28;20264;-69
2022/07/25 05:13:16;;;;;;;7.23;6.27;;;;;;;26.30;39.30;100536.38;5057664;28;20185;-69
2022/07/25 05:15:42;;;;;;;9.40;6.10;;;;;;;25.92;40.74;100535.00;5058577;28;20176;-71
2022/07/25 05:18:07;;;;;;;5.97;5.47;;;;;;;25.70;41.45;100530.88;5057279;28;20205;-69
2022/07/25 05:20:32;;;;;;;7.47;5.83;;;;;;;25.44;41.35;100523.50;5058590;28;20196;-69
2022/07/25 05:22:58;;;;;;;6.80;6.20;;;;;;;26.45;39.18;100527.44;5058040;28;20193;-69
2022/07/25 05:25:24;;;;;;;7.33;6.10;;;;;;;26.45;38.79;100521.25;5057824;28;20200;-70
2022/07/25 05:27:53;;;;;;;6.47;5.87;;;;;;;28.36;36.18;100514.38;5058295;28;20229;-68
2022/07/25 05:30:18;;;;;;;6.70;6.10;;;;;;;28.30;35.77;100508.59;5057926;28;20677;-70
2022/07/25 05:32:43;;;;;;;6.13;5.53;;;;;;;29.35;34.31;100503.91;5057967;28;20543;-69
2022/07/25 05:35:09;;;;;;;6.57;5.50;;;;;;;28.07;36.39;100513.69;5058291;28;20418;-72
2022/07/25 05:37:35;;;;;;;6.60;5.50;;;;;;;28.89;34.80;100506.25;5057859;28;20211;-69
2022/07/25 05:40:01;;;;;;;6.20;5.70;;;;;;;29.13;34.60;100497.38;5057874;28;20173;-69
2022/07/25 05:42:27;;;;;;;6.63;5.60;;;;;;;29.14;35.03;100498.25;5058056;28;20499;-70
2022/07/25 05:44:52;;;;;;;5.90;5.40;;;;;;;29.78;33.30;100489.97;5057855;28;20499;-70
2022/07/25 05:47:18;;;;;;;10.10;5.77;;;;;;;29.41;33.58;100490.03;5044194;28;20279;-69
2022/07/25 05:49:43;;;;;;;6.07;5.57;;;;;;;28.84;34.92;100492.28;5038261;28;20201;-69
2022/07/25 05:52:09;;;;;;;7.13;5.83;;;;;;;28.40;36.19;100494.44;5039661;28;20170;-71
2022/07/25 05:54:34;;;;;;;6.03;5.43;;;;;;;30.15;32.67;100484.50;5053449;28;20225;-69
2022/07/25 05:57:01;;;;;;;6.20;5.60;;;;;;;28.84;34.81;100481.56;5040391;28;20257;-70
2022/07/25 05:59:26;;;;;;;6.50;5.90;;;;;;;28.02;36.75;100489.03;5037677;28;20551;-69
2022/07/25 06:01:51;;;;;;;6.17;5.60;;;;;;;28.36;35.61;100481.34;5051521;28;20428;-70
2022/07/25 06:04:17;;;;;;;8.77;5.53;;;;;;;30.95;31.56;100474.69;5047080;28;20555;-69
2022/07/25 06:06:42;;;;;;;6.40;5.80;;;;;;;29.22;33.98;100475.25;5038170;28;20205;-69
2022/07/25 06:09:07;;;;;;;6.13;5.30;;;;;;;29.24;33.61;100473.31;5047154;28;20273;-69
2022/07/25 06:11:33;;;;;;;6.33;5.73;;;;;;;30.78;31.90;100459.91;5045318;28;20205;-70
2022/07/25 06:13:58;;;;;;;6.60;5.93;;;;;;;30.15;32.45;100459.47;5053873;28;20200;-70
2022/07/25 06:16:24;;;;;;;11.77;5.47;;;;;;;30.01;32.95;100455.13;5054898;28;20208;-69
2022/07/25 06:18:49;;;;;;;6.13;5.27;;;;;;;31.67;30.51;100448.25;5038532;28;20186;-70
2022/07/25 06:21:15;;;;;;;6.23;5.17;;;;;;;28.70;35.01;100453.06;5043219;28;20581;-70
2022/07/25 06:23:40;;;;;;;6.00;5.50;;;;;;;29.42;33.64;100448.78;5042587;28;20193;-70
2022/07/25 06:26:09;;;;;;;6.17;5.50;;;;;;;27.84;36.21;100454.44;5059998;28;20206;-70
2022/07/25 06:28:35;;;;;;;6.20;5.40;;;;;;;28.85;34.65;100459.13;5058669;28;20173;-71
2022/07/25 06:31:00;;;;;;;6.03;5.53;;;;;;;29.73;33.26;100449.19;5057997;28;20416;-74
2022/07/25 06:33:26;;;;;;;6.10;5.17;;;;;;;30.63;31.68;100440.44;5059037;28;20418;-73
2022/07/25 06:35:51;;;;;;;6.40;5.57;;;;;;;31.55;30.34;100442.88;5058967;28;20173;-74
2022/07/25 06:38:17;;;;;;;6.37;5.77;;;;;;;30.06;32.62;100440.38;5059103;28;20295;-72
2022/07/25 06:40:42;;;;;;;6.77;5.03;;;;;;;32.31;29.71;100441.03;5060792;28;20212;-72
2022/07/25 06:43:07;;;;;;;8.77;5.10;;;;;;;30.73;30.94;100443.28;5060846;28;20181;-70
2022/07/25 06:45:33;;;;;;;5.80;5.27;;;;;;;32.69;28.72;100437.66;5060527;28;20211;-72
2022/07/25 06:47:58;;;;;;;7.20;5.50;;;;;;;31.75;29.48;100437.66;5061166;28;20477;-70
2022/07/25 06:50:23;;;;;;;5.87;5.37;;;;;;;34.14;27.27;100444.38;5060536;28;20257;-71
2022/07/25 06:52:49;;;;;;;5.80;5.20;;;;;;;32.41;29.47;100439.25;5060212;28;20444;-72
2022/07/25 06:55:14;;;;;;;6.77;5.47;;;;;;;30.66;32.24;100439.34;5060920;28;20197;-71
2022/07/25 06:57:40;;;;;;;6.17;5.27;;;;;;;32.43;30.11;100437.25;5060482;28;20231;-72
2022/07/25 07:00:08;;;;;;;6.40;5.43;;;;;;;29.39;33.72;100438.28;5060695;28;20586;-70
2022/07/25 07:02:35;;;;;;;5.97;5.43;;;;;;;29.69;33.36;100439.63;5061052;28;20405;-71
2022/07/25 07:05:00;;;;;;;14.20;5.27;;;;;;;28.25;36.10;100435.66;5059382;28;20797;-71
2022/07/25 07:07:26;;;;;;;6.80;5.30;;;;;;;30.11;32.99;100431.09;5060262;28;20527;-70
2022/07/25 07:09:51;;;;;;;6.67;5.40;;;;;;;31.54;31.08;100425.00;5060753;28;20245;-73
2022/07/25 07:12:17;;;;;;;6.70;5.60;;;;;;;33.19;28.63;100415.22;5060231;28;20174;-69
2022/07/25 07:14:44;;;;;;;5.97;5.27;;;;;;;33.58;28.35;100406.28;5060072;28;20265;-71
2022/07/25 07:17:09;;;;;;;5.27;4.77;;;;;;;35.32;26.46;100404.94;5060413;28;20204;-70
2022/07/25 07:19:34;;;;;;;6.60;5.30;;;;;;;33.65;28.13;100404.72;5060113;28;20416;-73
2022/07/25 07:22:00;;;;;;;5.40;5.00;;;;;;;32.47;29.41;100410.88;5060014;28;20169;-71
2022/07/25 07:24:25;;;;;;;5.73;5.23;;;;;;;33.88;27.90;100408.00;5060463;28;20193;-71
2022/07/25 07:26:52;;;;;;;5.50;5.10;;;;;;;34.58;26.21;100398.66;5059703;28;20176;-74
2022/07/25 07:29:17;;;;;;;8.30;5.13;;;;;;;36.40;24.98;100390.34;5059704;28;20249;-73
2022/07/25 07:31:43;;;;;;;10.17;4.97;;;;;;;35.19;26.38;100389.03;5060414;28;20500;-72
2022/07/25 07:34:08;;;;;;;5.60;5.00;;;;;;;35.49;25.41;100386.97;5059797;28;20169;-69
2022/07/25 07:36:34;;;;;;;6.30;5.27;;;;;;;35.45;26.27;100385.56;5058649;28;20497;-70
2022/07/25 07:38:59;;;;;;;6.30;5.80;;;;;;;35.60;25.52;100382.31;5060242;28;20256;-70
2022/07/25 07:41:25;;;;;;;10.10;5.40;;;;;;;35.18;25.82;100383.78;5059829;28;20165;-70
2022/07/25 07:43:50;;;;;;;10.57;4.83;;;;;;;35.69;26.01;100373.22;5059546;28;20187;-70
2022/07/25 07:46:15;;;;;;;11.93;6.43;;;;;;;35.20;26.36;100381.78;5060139;28;20192;-71
2022/07/25 07:48:41;;;;;;;9.60;5.27;;;;;;;36.63;24.52;100362.56;5059659;28;20607;-72
2022/07/25 07:51:06;;;;;;;5.63;4.80;;;;;;;35.46;25.86;100368.31;5059452;28;20203;-70
2022/07/25 07:56:17;;;;;;;8.50;5.60;;;;;;;36.81;24.51;100363.34;5059871;28;20462;-71
2022/07/25 07:58:43;;;;;;;6.50;5.17;;;;;;;38.47;22.81;100353.19;5059422;28;20489;-72
2022/07/25 08:01:08;;;;;;;7.07;5.10;;;;;;;36.13;24.34;100351.50;5059423;28;20510;-72
2022/07/25 08:03:33;;;;;;;7.23;5.90;;;;;;;37.47;23.75;100338.97;5059083;28;20432;-72
2022/07/25 08:05:59;;;;;;;7.00;4.90;;;;;;;35.62;25.87;100353.19;5059558;28;20199;-71
2022/07/25 08:08:24;;;;;;;5.70;5.17;;;;;;;36.48;23.99;100338.78;5058988;28;20252;-71
2022/07/25 08:10:50;;;;;;;8.53;5.73;;;;;;;37.00;24.40;100336.91;5059140;28;20169;-73
2022/07/25 08:13:17;;;;;;;6.37;5.07;;;;;;;37.93;22.71;100343.84;5059562;28;20179;-71
2022/07/25 08:15:45;;;;;;;7.70;5.17;;;;;;;37.71;23.74;100334.50;5058793;28;20263;-75
2022/07/25 08:18:11;;;;;;;9.90;5.57;;;;;;;37.29;23.44;100328.25;5058653;28;20496;-72
2022/07/25 08:20:37;;;;;;;7.07;5.47;;;;;;;37.11;23.65;100328.41;5059241;28;20404;-72
2022/07/25 08:23:02;;;;;;;11.57;5.43;;;;;;;38.05;23.12;100322.53;5058821;28;20433;-71
2022/07/25 08:25:28;;;;;;;10.37;5.53;;;;;;;37.61;23.25;100322.97;5058552;28;20244;-71
2022/07/25 08:27:53;;;;;;;7.53;6.03;;;;;;;38.41;22.45;100322.91;5058825;28;20546;-73
2022/07/25 08:30:19;;;;;;;6.13;5.63;;;;;;;38.57;22.20;100318.41;5058582;28;20188;-73
2022/07/25 08:32:51;;;;;;;6.07;5.47;;;;;;;39.33;20.46;100315.03;5058703;28;20169;-73
2022/07/25 08:35:18;;;;;;;6.80;6.20;;;;;;;39.24;21.06;100311.50;5058784;28;20211;-73
2022/07/25 08:37:44;;;;;;;6.37;5.87;;;;;;;38.54;21.53;100308.72;5058524;28;20466;-73
2022/07/25 08:40:11;;;;;;;6.47;6.00;;;;;;;39.57;20.39;100312.06;5058380;28;20434;-73
2022/07/25 08:42:37;;;;;;;9.33;6.03;;;;;;;39.09;20.70;100314.16;5058858;28;20411;-73
2022/07/25 08:45:04;;;;;;;6.27;5.77;;;;;;;38.84;21.24;100295.28;5058192;28;20863;-74
2022/07/25 08:47:30;;;;;;;7.00;5.83;;;;;;;39.69;20.68;100293.38;5057989;28;20197;-72
2022/07/25 08:49:56;;;;;;;6.80;5.63;;;;;;;38.22;21.44;100299.66;5059008;28;20491;-71
2022/07/25 08:52:22;;;;;;;6.70;5.63;;;;;;;39.76;19.79;100288.00;5057611;28;20424;-70
2022/07/25 08:54:48;;;;;;;6.60;6.00;;;;;;;38.06;21.94;100297.03;5058078;28;20247;-72
2022/07/25 08:57:14;;;;;;;6.37;5.80;;;;;;;37.91;22.32;100286.84;5058585;28;20455;-72
2022/07/25 08:59:40;;;;;;;6.40;5.90;;;;;;;38.32;22.27;100296.78;5058279;28;20499;-72
2022/07/25 09:02:07;;;;;;;6.90;6.20;;;;;;;39.41;20.80;100277.59;5057460;28;20169;-72
2022/07/25 09:04:34;;;;;;;5.93;5.43;;;;;;;39.42;20.89;100275.75;5058497;28;20218;-72
2022/07/25 09:07:03;;;;;;;6.53;5.73;;;;;;;39.86;20.54;100280.38;5058201;28;20415;-72
2022/07/25 09:09:34;;;;;;;8.67;6.17;;;;;;;37.83;22.71;100289.59;5058026;28;20471;-72
2022/07/25 09:11:59;;;;;;;6.50;6.00;;;;;;;37.41;23.41;100287.97;5057400;28;20691;-72
2022/07/25 09:14:25;;;;;;;7.47;6.03;;;;;;;37.32;23.17;100278.13;5057885;28;20411;-72
2022/07/25 09:16:52;;;;;;;6.40;5.90;;;;;;;37.53;23.03;100273.00;5058108;28;20203;-72
2022/07/25 09:19:23;;;;;;;7.00;6.20;;;;;;;38.31;22.37;100275.16;5058040;28;20169;-72
2022/07/25 09:21:58;;;;;;;6.40;5.80;;;;;;;38.90;22.20;100275.50;5057862;28;20431;-71
2022/07/25 09:24:23;;;;;;;6.47;6.07;;;;;;;40.00;21.03;100258.72;5058165;28;20407;-71
2022/07/25 09:26:53;;;;;;;6.50;6.00;;;;;;;40.27;20.72;100259.94;5057927;28;20411;-69
2022/07/25 09:29:22;;;;;;;6.40;5.80;;;;;;;40.60;20.22;100261.38;5057997;28;20226;-69
2022/07/25 09:31:48;;;;;;;6.43;5.83;;;;;;;40.89;19.85;100263.97;5058231;28;20855;-70
2022/07/25 09:34:30;;;;;;;6.77;6.27;;;;;;;40.36;20.29;100257.94;5057741;28;20428;-69
2022/07/25 09:36:56;;;;;;;6.40;5.70;;;;;;;40.30;20.48;100258.69;5057557;28;20494;-71
2022/07/25 09:39:35;;;;;;;6.73;6.23;;;;;;;38.86;21.98;100265.13;5057532;28;20491;-72
2022/07/25 09:42:01;;;;;;;16.10;7.10;;;;;;;37.59;22.45;100260.56;5057726;28;20172;-71
2022/07/25 09:44:29;;;;;;;8.30;6.00;;;;;;;37.31;23.87;100258.28;5057549;28;20524;-71
2022/07/25 09:46:57;;;;;;;7.57;6.70;;;;;;;36.98;23.94;100260.13;5057627;28;20243;-76
2022/07/25 09:49:24;;;;;;;7.30;6.70;;;;;;;37.35;23.03;100256.91;5058124;28;20825;-73
2022/07/25 09:51:50;;;;;;;9.80;6.60;;;;;;;37.61;23.25;100252.25;5056861;28;20813;-72
2022/07/25 09:54:16;;;;;;;7.00;6.30;;;;;;;37.73;23.12;100242.69;5057514;28;20452;-71
2022/07/25 09:56:41;;;;;;;6.87;6.33;;;;;;;37.37;23.92;100251.28;5057763;28;20431;-73
2022/07/25 09:59:07;;;;;;;6.93;6.33;;;;;;;38.14;22.76;100245.25;5057938;28;20404;-74
2022/07/25 10:01:37;;;;;;;7.13;6.43;;;;;;;37.86;22.77;100240.31;5061949;28;20215;-74
2022/07/25 10:04:16;;;;;;;7.77;7.07;;;;;;;37.55;22.84;100246.50;5061110;28;20157;-72
2022/07/25 10:07:05;;;;;;;6.80;6.30;;;;;;;36.81;24.29;100245.69;5061029;28;20435;-72
2022/07/25 10:09:30;;;;;;;7.10;6.60;;;;;;;36.79;24.31;100248.53;5060752;28;20428;-71
2022/07/25 10:12:08;;;;;;;6.87;6.27;;;;;;;35.64;25.78;100243.56;5060623;28;20427;-72
2022/07/25 10:14:34;;;;;;;8.10;6.73;;;;;;;35.90;25.55;100251.69;5061251;28;20176;-71
2022/07/25 10:17:00;;;;;;;7.03;6.40;;;;;;;35.89;26.02;100243.72;5060910;28;20491;-73
2022/07/25 10:19:55;;;;;;;6.87;6.23;;;;;;;36.44;25.47;100239.69;5061139;28;20475;-72
2022/07/25 10:22:21;;;;;;;7.40;6.80;;;;;;;36.08;26.21;100245.31;5046437;28;20462;-72
2022/07/25 10:24:47;;;;;;;6.73;6.23;;;;;;;35.99;25.45;100243.56;5061101;28;20412;-74
2022/07/25 10:27:20;;;;;;;7.10;6.60;;;;;;;34.97;26.81;100240.53;5061058;28;20438;-74
2022/07/25 10:29:51;;;;;;;7.93;7.33;;;;;;;35.56;26.37;100238.06;5061139;28;20180;-74
2022/07/25 10:32:16;;;;;;;7.63;7.03;;;;;;;34.61;27.45;100245.91;5061005;28;20458;-73
2022/07/25 10:34:51;;;;;;;7.67;6.97;;;;;;;35.19;26.81;100228.31;5061022;28;20415;-73
2022/07/25 10:37:17;;;;;;;7.50;6.90;;;;;;;34.97;26.84;100238.66;5061142;28;20205;-73
2022/07/25 10:39:43;;;;;;;7.10;6.50;;;;;;;35.57;26.51;100223.50;5061068;28;20813;-72
2022/07/25 10:42:16;;;;;;;7.63;7.00;;;;;;;34.78;27.37;100231.53;5061090;28;20408;-73
2022/07/25 10:44:56;;;;;;;6.90;6.40;;;;;;;35.33;27.20;100224.22;5060506;28;20420;-74
2022/07/25 10:47:25;;;;;;;7.53;6.93;;;;;;;35.20;26.98;100228.16;5060870;28;20411;-72
2022/07/25 10:49:57;;;;;;;7.30;6.70;;;;;;;35.11;27.14;100230.97;5060652;28;20419;-72
2022/07/25 10:52:27;;;;;;;9.67;6.87;;;;;;;35.05;26.66;100218.91;5061585;28;20485;-73
2022/07/25 10:54:54;;;;;;;7.87;7.20;;;;;;;35.20;27.05;100220.03;5060169;28;20521;-73
2022/07/25 10:57:20;;;;;;;8.73;6.90;;;;;;;35.92;26.79;100214.38;5060392;28;20463;-71
2022/07/25 10:59:45;;;;;;;7.70;6.97;;;;;;;35.45;26.80;100209.38;5060681;28;20782;-72
2022/07/25 11:02:17;;;;;;;8.73;7.80;;;;;;;35.15;26.94;100213.41;5060492;28;20165;-73
2022/07/25 11:04:44;;;;;;;10.57;7.00;;;;;;;35.15;27.58;100211.53;5060125;28;20166;-72
2022/07/25 11:07:12;;;;;;;7.93;7.23;;;;;;;34.60;28.47;100211.72;5060675;28;20446;-74
2022/07/25 11:09:38;;;;;;;7.63;6.93;;;;;;;34.17;29.43;100206.88;5060816;28;20919;-73
2022/07/25 11:12:04;;;;;;;11.77;7.57;;;;;;;34.35;29.33;100206.91;5058990;28;20692;-71
2022/07/25 11:14:32;;;;;;;7.60;6.80;;;;;;;34.08;28.85;100213.19;5060671;28;20424;-71
2022/07/25 11:17:18;;;;;;;7.87;7.27;;;;;;;34.01;29.17;100214.81;5060187;28;20221;-73
2022/07/25 11:20:03;;;;;;;7.77;7.17;;;;;;;33.89;29.44;100219.56;5060307;28;20415;-71